createdAt,value
2022-12-04T00:01:41.710Z,0.90
2022-12-04T00:04:10.422Z,1.00
2022-12-04T00:06:37.964Z,1.08
2022-12-04T00:09:05.735Z,1.00
2022-12-04T00:11:33.800Z,1.02
2022-12-04T00:14:06.542Z,1.02
2022-12-04T00:16:35.523Z,1.10
2022-12-04T00:19:03.872Z,1.00
2022-12-04T00:21:31.646Z,1.30
2022-12-04T00:23:59.160Z,1.10
2022-12-04T00:26:27.466Z,1.40
2022-12-04T00:28:55.717Z,1.35
2022-12-04T00:31:24.984Z,1.10
2022-12-04T00:33:53.004Z,1.33
2022-12-04T00:36:22.211Z,1.20
2022-12-04T00:38:49.950Z,0.93
2022-12-04T00:41:20.086Z,1.13
2022-12-04T00:43:47.763Z,1.00
2022-12-04T00:46:16.078Z,0.95
2022-12-04T00:48:44.478Z,0.88
2022-12-04T00:51:13.720Z,1.00
2022-12-04T00:53:41.932Z,1.00
2022-12-04T00:56:20.401Z,0.98
2022-12-04T00:58:48.320Z,1.00
2022-12-04T01:01:17.284Z,1.10
2022-12-04T01:03:45.184Z,1.10
2022-12-04T01:06:39.163Z,1.02
2022-12-04T01:09:07.077Z,1.20
2022-12-04T01:11:34.769Z,1.40
2022-12-04T01:14:02.635Z,1.52
2022-12-04T01:16:32.027Z,1.27
2022-12-04T01:18:59.782Z,1.38
2022-12-04T01:21:27.465Z,1.75
2022-12-04T01:23:55.267Z,1.88
2022-12-04T01:26:23.020Z,2.00
2022-12-04T01:28:50.572Z,1.90
2022-12-04T01:31:19.661Z,2.63
2022-12-04T01:33:47.936Z,2.22
2022-12-04T01:36:17.029Z,2.70
2022-12-04T01:38:45.146Z,2.42
2022-12-04T01:41:20.505Z,2.45
2022-12-04T01:44:07.341Z,2.47
2022-12-04T01:46:34.918Z,2.30
2022-12-04T01:49:03.808Z,2.58
2022-12-04T01:51:34.490Z,2.50
2022-12-04T01:54:04.228Z,2.60
2022-12-04T01:56:39.773Z,2.58
2022-12-04T01:59:08.016Z,2.65
2022-12-04T02:01:39.203Z,2.78
2022-12-04T02:04:06.919Z,3.20
2022-12-04T02:06:34.617Z,2.83
2022-12-04T02:09:02.328Z,3.08
2022-12-04T02:11:48.883Z,3.20
2022-12-04T02:14:16.412Z,2.97
2022-12-04T02:16:48.112Z,3.00
2022-12-04T02:19:31.142Z,3.10
2022-12-04T02:22:00.083Z,2.80
2022-12-04T02:24:30.808Z,2.70
2022-12-04T02:27:21.359Z,2.70
2022-12-04T02:30:06.385Z,2.88
2022-12-04T02:32:40.449Z,2.72
2022-12-04T02:35:16.587Z,2.95
2022-12-04T02:37:46.451Z,3.20
2022-12-04T02:40:14.413Z,2.80
2022-12-04T02:42:44.169Z,3.13
2022-12-04T02:45:13.734Z,3.30
2022-12-04T02:47:42.966Z,3.13
2022-12-04T02:50:13.255Z,3.20
2022-12-04T02:52:45.089Z,3.05
2022-12-04T02:55:21.880Z,3.00
2022-12-04T02:57:51.507Z,3.40
2022-12-04T03:00:19.597Z,3.03
2022-12-04T03:03:02.540Z,3.35
2022-12-04T03:05:41.754Z,3.28
2022-12-04T03:08:12.345Z,2.88
2022-12-04T03:10:44.190Z,2.88
2022-12-04T03:13:14.620Z,3.15
2022-12-04T03:15:45.052Z,3.40
2022-12-04T03:18:19.223Z,3.22
2022-12-04T03:20:48.884Z,2.90
2022-12-04T03:23:22.183Z,2.67
2022-12-04T03:26:13.042Z,2.80
2022-12-04T03:28:40.563Z,2.70
2022-12-04T03:31:10.509Z,2.55
2022-12-04T03:33:43.357Z,2.50
2022-12-04T03:36:17.277Z,2.30
2022-12-04T03:38:47.828Z,1.95
2022-12-04T03:41:31.907Z,2.20
2022-12-04T03:44:18.518Z,1.80
2022-12-04T03:46:52.219Z,1.58
2022-12-04T03:49:22.756Z,1.60
2022-12-04T03:52:00.664Z,1.58
2022-12-04T03:54:34.572Z,1.55
2022-12-04T03:57:12.985Z,1.52
2022-12-04T03:59:55.229Z,1.70
2022-12-04T04:02:24.983Z,1.70
2022-12-04T04:04:56.381Z,1.60
2022-12-04T04:07:30.403Z,1.70
2022-12-04T04:10:05.770Z,1.58
2022-12-04T04:12:36.320Z,1.70
2022-12-04T04:15:25.815Z,1.77
2022-12-04T04:18:13.561Z,1.67
2022-12-04T04:21:01.802Z,1.60
2022-12-04T04:23:50.976Z,1.70
2022-12-04T04:26:19.083Z,1.90
2022-12-04T04:28:46.746Z,1.60
2022-12-04T04:31:33.289Z,1.77
2022-12-04T04:34:15.981Z,1.63
2022-12-04T04:36:49.332Z,1.60
2022-12-04T04:39:19.797Z,2.20
2022-12-04T04:41:53.227Z,1.70
2022-12-04T04:44:25.297Z,1.85
2022-12-04T04:46:56.201Z,2.10
2022-12-04T04:49:26.384Z,2.03
2022-12-04T04:51:54.605Z,2.10
2022-12-04T04:54:22.562Z,2.40
2022-12-04T04:56:50.156Z,1.75
2022-12-04T04:59:17.840Z,2.20
2022-12-04T05:01:46.332Z,1.90
2022-12-04T05:04:14.191Z,2.10
2022-12-04T05:06:41.731Z,1.70
2022-12-04T05:09:09.337Z,1.67
2022-12-04T05:11:36.939Z,2.20
2022-12-04T05:14:05.951Z,2.03
2022-12-04T05:16:33.778Z,2.10
2022-12-04T05:19:20.252Z,1.70
2022-12-04T05:21:47.809Z,2.08
2022-12-04T05:24:15.354Z,2.30
2022-12-04T05:26:43.012Z,2.10
2022-12-04T05:29:10.709Z,2.10
2022-12-04T05:31:38.278Z,2.28
2022-12-04T05:34:05.843Z,2.40
2022-12-04T05:36:36.194Z,1.90
2022-12-04T05:39:04.014Z,1.48
2022-12-04T05:41:31.519Z,1.40
2022-12-04T05:43:59.249Z,1.50
2022-12-04T05:46:26.847Z,1.58
2022-12-04T05:48:54.413Z,1.40
2022-12-04T05:51:21.939Z,1.60
2022-12-04T05:53:52.648Z,1.45
2022-12-04T05:56:20.210Z,1.33
2022-12-04T05:58:47.697Z,1.52
2022-12-04T06:01:22.655Z,1.65
2022-12-04T06:03:50.327Z,1.80
2022-12-04T06:06:22.660Z,2.00
2022-12-04T06:08:51.324Z,1.80
2022-12-04T06:11:20.703Z,1.83
2022-12-04T06:13:48.486Z,2.10
2022-12-04T06:16:20.850Z,1.98
2022-12-04T06:18:58.955Z,2.00
2022-12-04T06:21:28.382Z,3.05
2022-12-04T06:23:56.425Z,4.60
2022-12-04T06:26:25.261Z,2.00
2022-12-04T06:28:57.426Z,2.30
2022-12-04T06:31:25.823Z,1.80
2022-12-04T06:33:54.192Z,3.08
2022-12-04T06:36:22.254Z,2.10
2022-12-04T06:38:50.779Z,1.75
2022-12-04T06:41:19.630Z,1.85
2022-12-04T06:43:47.242Z,1.73
2022-12-04T06:46:19.161Z,1.30
2022-12-04T06:48:46.937Z,1.75
2022-12-04T06:51:19.536Z,1.40
2022-12-04T06:53:47.280Z,1.27
2022-12-04T06:56:17.909Z,1.30
2022-12-04T06:58:46.163Z,1.10
2022-12-04T07:01:15.981Z,1.40
2022-12-04T07:03:50.770Z,1.40
2022-12-04T07:06:20.644Z,1.40
2022-12-04T07:08:50.068Z,1.80
2022-12-04T07:11:18.054Z,3.70
2022-12-04T07:13:45.608Z,4.18
2022-12-04T07:16:14.335Z,3.70
2022-12-04T07:18:42.659Z,4.18
2022-12-04T07:21:11.738Z,4.00
2022-12-04T07:23:39.311Z,4.30
2022-12-04T07:26:07.741Z,3.88
2022-12-04T07:28:36.693Z,4.18
2022-12-04T07:31:11.951Z,4.85
2022-12-04T07:33:39.860Z,4.28
2022-12-04T07:36:08.897Z,4.32
2022-12-04T07:38:36.551Z,4.57
2022-12-04T07:41:05.280Z,5.35
2022-12-04T07:43:33.360Z,4.85
2022-12-04T07:46:05.300Z,5.47
2022-12-04T07:48:33.625Z,5.72
2022-12-04T07:51:05.241Z,5.93
2022-12-04T07:53:33.910Z,6.03
2022-12-04T07:56:01.943Z,6.63
2022-12-04T07:58:29.527Z,7.25
2022-12-04T08:01:05.219Z,6.70
2022-12-04T08:03:32.841Z,6.95
2022-12-04T08:06:01.482Z,6.72
2022-12-04T08:08:29.426Z,6.82
2022-12-04T08:10:57.006Z,6.85
2022-12-04T08:13:24.547Z,7.65
2022-12-04T08:15:52.211Z,8.85
2022-12-04T08:18:19.940Z,8.38
2022-12-04T08:20:47.545Z,10.43
2022-12-04T08:23:15.106Z,9.50
2022-12-04T08:25:42.662Z,13.27
2022-12-04T08:28:10.298Z,11.30
2022-12-04T08:30:37.872Z,11.25
2022-12-04T08:33:05.527Z,10.43
2022-12-04T08:35:33.226Z,12.57
2022-12-04T08:38:00.812Z,10.10
2022-12-04T08:40:28.406Z,11.05
2022-12-04T08:42:56.008Z,9.02
2022-12-04T08:45:23.526Z,9.30
2022-12-04T08:47:52.663Z,8.65
2022-12-04T08:50:20.425Z,13.18
2022-12-04T08:52:48.018Z,9.00
2022-12-04T08:55:15.630Z,6.70
2022-12-04T08:57:43.234Z,9.95
2022-12-04T09:00:12.878Z,8.82
2022-12-04T09:02:40.492Z,8.38
2022-12-04T09:05:08.117Z,7.10
2022-12-04T09:07:35.760Z,13.05
2022-12-04T09:10:03.379Z,9.65
2022-12-04T09:12:30.938Z,8.98
2022-12-04T09:14:58.446Z,8.18
2022-12-04T09:17:26.019Z,8.30
2022-12-04T09:19:57.854Z,8.50
2022-12-04T09:22:40.493Z,8.60
2022-12-04T09:25:15.733Z,8.60
2022-12-04T09:27:44.964Z,8.60
2022-12-04T09:30:12.911Z,8.52
2022-12-04T09:32:40.568Z,7.70
2022-12-04T09:35:08.275Z,8.40
2022-12-04T09:37:39.120Z,8.43
2022-12-04T09:40:07.454Z,9.45
2022-12-04T09:43:03.111Z,7.68
2022-12-04T09:45:43.100Z,7.80
2022-12-04T09:48:11.589Z,6.95
2022-12-04T09:50:43.557Z,7.97
2022-12-04T09:53:23.654Z,8.00
2022-12-04T09:56:02.980Z,8.60
2022-12-04T09:58:40.295Z,11.15
2022-12-04T10:01:15.699Z,10.25
2022-12-04T10:03:43.670Z,8.82
2022-12-04T10:06:20.004Z,8.27
2022-12-04T10:08:51.902Z,7.55
2022-12-04T10:11:22.411Z,8.00
2022-12-04T10:14:08.533Z,7.07
2022-12-04T10:16:36.125Z,7.32
2022-12-04T10:19:15.935Z,7.70
2022-12-04T10:21:50.756Z,6.65
2022-12-04T10:24:24.707Z,8.32
2022-12-04T10:26:53.235Z,48.42
2022-12-04T10:29:22.931Z,9.20
2022-12-04T10:31:52.170Z,7.25
2022-12-04T10:34:22.071Z,8.25
2022-12-04T10:36:54.358Z,7.15
2022-12-04T10:39:25.036Z,7.35
2022-12-04T10:42:04.588Z,9.60
2022-12-04T10:44:32.166Z,8.55
2022-12-04T10:47:01.224Z,9.10
2022-12-04T10:49:33.566Z,8.30
2022-12-04T10:52:01.203Z,9.77
2022-12-04T10:54:36.512Z,9.27
2022-12-04T10:57:05.681Z,8.05
2022-12-04T10:59:33.720Z,9.65
2022-12-04T11:02:06.995Z,8.95
2022-12-04T11:04:36.344Z,8.02
2022-12-04T11:07:05.481Z,8.77
2022-12-04T11:09:33.381Z,7.70
2022-12-04T11:12:17.710Z,8.10
2022-12-04T11:14:47.250Z,23.35
2022-12-04T11:17:17.047Z,14.85
2022-12-04T11:19:45.102Z,9.85
2022-12-04T11:22:18.376Z,10.88
2022-12-04T11:24:55.172Z,9.07
2022-12-04T11:27:36.011Z,9.30
2022-12-04T11:30:08.532Z,9.40
2022-12-04T11:32:36.972Z,8.27
2022-12-04T11:35:12.984Z,8.55
2022-12-04T11:37:45.073Z,8.85
2022-12-04T11:40:18.481Z,7.65
2022-12-04T11:42:57.334Z,9.05
2022-12-04T11:45:25.004Z,9.18
2022-12-04T11:47:56.967Z,9.00
2022-12-04T11:50:39.902Z,7.72
2022-12-04T11:53:17.789Z,7.20
2022-12-04T11:56:13.250Z,11.50
2022-12-04T11:59:02.532Z,7.07
2022-12-04T12:01:50.987Z,27.52
2022-12-04T12:04:41.111Z,10.48
2022-12-04T12:07:08.652Z,9.55
2022-12-04T12:09:45.059Z,9.18
2022-12-04T12:12:20.680Z,8.25
2022-12-04T12:14:57.935Z,8.27
2022-12-04T12:17:32.915Z,7.40
2022-12-04T12:20:00.782Z,8.00
2022-12-04T12:22:40.013Z,7.90
2022-12-04T12:25:33.953Z,6.78
2022-12-04T12:28:13.810Z,6.47
2022-12-04T12:30:47.455Z,6.60
2022-12-04T12:33:20.728Z,6.78
2022-12-04T12:36:08.551Z,7.43
2022-12-04T12:38:54.452Z,6.53
2022-12-04T12:41:24.919Z,6.97
2022-12-04T12:43:59.982Z,7.18
2022-12-04T12:46:30.854Z,5.55
2022-12-04T12:49:09.896Z,7.00
2022-12-04T12:51:42.673Z,7.80
2022-12-04T12:54:30.611Z,70.10
2022-12-04T12:57:03.616Z,29.15
2022-12-04T12:59:32.454Z,13.98
2022-12-04T13:02:15.247Z,10.07
2022-12-04T13:04:43.784Z,9.63
2022-12-04T13:07:30.025Z,9.32
2022-12-04T13:09:57.985Z,10.13
2022-12-04T13:12:26.997Z,10.57
2022-12-04T13:14:54.533Z,11.10
2022-12-04T13:17:31.962Z,11.38
2022-12-04T13:20:00.941Z,10.40
2022-12-04T13:22:35.943Z,10.07
2022-12-04T13:25:21.961Z,10.10
2022-12-04T13:27:59.302Z,10.02
2022-12-04T13:30:37.194Z,11.63
2022-12-04T13:33:04.828Z,12.07
2022-12-04T13:35:55.708Z,20.45
2022-12-04T13:38:42.402Z,11.25
2022-12-04T13:41:11.281Z,12.40
2022-12-04T13:43:42.074Z,12.40
2022-12-04T13:46:29.063Z,12.52
2022-12-04T13:49:07.494Z,15.40
2022-12-04T13:51:42.631Z,14.85
2022-12-04T13:54:12.996Z,16.98
2022-12-04T13:56:45.045Z,15.32
2022-12-04T13:59:24.847Z,13.27
2022-12-04T14:01:53.759Z,11.90
2022-12-04T14:04:34.501Z,11.55
2022-12-04T14:07:04.038Z,11.93
2022-12-04T14:09:39.353Z,10.93
2022-12-04T14:12:08.622Z,10.88
2022-12-04T14:14:46.672Z,10.30
2022-12-04T14:17:25.647Z,10.00
2022-12-04T14:19:54.839Z,10.02
2022-12-04T14:22:30.737Z,10.27
2022-12-04T14:25:09.148Z,10.48
2022-12-04T14:27:42.814Z,11.93
2022-12-04T14:30:20.051Z,13.02
2022-12-04T14:32:49.712Z,13.75
2022-12-04T14:35:25.328Z,13.35
2022-12-04T14:37:58.039Z,15.18
2022-12-04T14:40:31.236Z,14.55
2022-12-04T14:42:59.329Z,14.70
2022-12-04T14:45:37.464Z,13.95
2022-12-04T14:48:24.510Z,32.83
2022-12-04T14:50:55.644Z,25.00
2022-12-04T14:53:26.121Z,19.42
2022-12-04T14:56:07.266Z,17.27
2022-12-04T14:58:38.342Z,16.38
2022-12-04T15:01:07.777Z,16.95
2022-12-04T15:03:37.188Z,15.93
2022-12-04T15:06:07.262Z,15.30
2022-12-04T15:08:35.481Z,19.48
2022-12-04T15:11:25.458Z,43.08
2022-12-04T15:13:53.090Z,42.30
2022-12-04T15:16:21.650Z,29.00
2022-12-04T15:18:59.736Z,25.80
2022-12-04T15:21:38.340Z,21.55
2022-12-04T15:24:10.263Z,16.42
2022-12-04T15:26:38.723Z,15.57
2022-12-04T15:29:08.450Z,15.70
2022-12-04T15:31:39.000Z,16.10
2022-12-04T15:34:17.777Z,16.77
2022-12-04T15:36:47.480Z,15.75
2022-12-04T15:39:17.982Z,16.20
2022-12-04T15:41:45.661Z,15.55
2022-12-04T15:44:28.822Z,15.80
2022-12-04T15:46:57.978Z,14.70
2022-12-04T15:49:27.820Z,15.75
2022-12-04T15:52:24.932Z,19.23
2022-12-04T15:55:01.346Z,18.10
2022-12-04T15:57:30.768Z,23.77
2022-12-04T16:00:05.115Z,27.95
2022-12-04T16:02:33.693Z,28.77
2022-12-04T16:05:12.035Z,25.23
2022-12-04T16:07:48.344Z,18.23
2022-12-04T16:10:23.750Z,16.95
2022-12-04T16:12:58.488Z,17.05
2022-12-04T16:15:28.163Z,15.55
2022-12-04T16:17:56.021Z,15.52
2022-12-04T16:20:23.602Z,17.48
2022-12-04T16:22:53.890Z,17.75
2022-12-04T16:25:21.559Z,17.38
2022-12-04T16:27:49.078Z,16.17
2022-12-04T16:30:16.818Z,19.23
2022-12-04T16:32:44.422Z,18.67
2022-12-04T16:35:16.890Z,20.13
2022-12-04T16:37:44.436Z,19.65
2022-12-04T16:40:13.170Z,21.63
2022-12-04T16:42:41.030Z,20.67
2022-12-04T16:45:15.118Z,19.20
2022-12-04T16:47:45.369Z,19.95
2022-12-04T16:50:13.059Z,19.02
2022-12-04T16:52:40.849Z,21.75
2022-12-04T16:55:16.485Z,24.85
2022-12-04T16:57:44.132Z,25.58
2022-12-04T17:00:15.519Z,26.17
2022-12-04T17:02:43.293Z,23.65
2022-12-04T17:05:29.594Z,21.73
2022-12-04T17:07:57.204Z,21.55
2022-12-04T17:10:24.801Z,52.40
2022-12-04T17:12:53.420Z,50.00
2022-12-04T17:15:21.061Z,59.72
2022-12-04T17:17:48.705Z,75.50
2022-12-04T17:20:19.329Z,29.77
2022-12-04T17:22:46.903Z,25.58
2022-12-04T17:25:14.493Z,30.50
2022-12-04T17:27:42.018Z,29.48
2022-12-04T17:30:10.075Z,30.70
2022-12-04T17:32:37.767Z,27.90
2022-12-04T17:35:06.203Z,36.25
2022-12-04T17:37:34.076Z,34.28
2022-12-04T17:40:01.607Z,57.15
2022-12-04T17:42:29.189Z,62.63
2022-12-04T17:44:57.058Z,48.78
2022-12-04T17:47:24.917Z,36.22
2022-12-04T17:49:52.459Z,52.40
2022-12-04T17:52:22.362Z,39.30
2022-12-04T17:54:52.840Z,25.30
2022-12-04T17:57:22.252Z,23.55
2022-12-04T17:59:50.180Z,24.73
2022-12-04T18:02:17.737Z,34.40
2022-12-04T18:04:45.296Z,27.30
2022-12-04T18:07:12.898Z,25.90
2022-12-04T18:09:40.513Z,30.13
2022-12-04T18:12:08.060Z,27.50
2022-12-04T18:14:36.994Z,24.77
2022-12-04T18:17:04.851Z,49.70
2022-12-04T18:19:32.438Z,31.83
2022-12-04T18:22:00.098Z,37.45
2022-12-04T18:24:27.951Z,24.30
2022-12-04T18:26:55.567Z,27.42
2022-12-04T18:29:25.136Z,192.80
2022-12-04T18:31:52.830Z,27.65
2022-12-04T18:34:20.926Z,57.65
2022-12-04T18:36:48.964Z,21.60
2022-12-04T18:39:18.261Z,18.17
2022-12-04T18:41:45.999Z,17.90
2022-12-04T18:44:13.814Z,17.48
2022-12-04T18:46:41.440Z,17.90
2022-12-04T18:49:12.232Z,16.95
2022-12-04T18:51:40.966Z,18.05
2022-12-04T18:54:12.902Z,18.42
2022-12-04T18:56:40.817Z,19.40
2022-12-04T18:59:13.005Z,20.15
2022-12-04T19:01:41.369Z,20.42
2022-12-04T19:04:10.368Z,20.33
2022-12-04T19:06:42.136Z,21.00
2022-12-04T19:09:14.508Z,20.63
2022-12-04T19:11:42.463Z,19.77
2022-12-04T19:14:20.807Z,20.33
2022-12-04T19:16:50.274Z,19.92
2022-12-04T19:19:18.021Z,21.00
2022-12-04T19:21:45.650Z,19.20
2022-12-04T19:24:14.021Z,20.38
2022-12-04T19:26:42.588Z,20.58
2022-12-04T19:29:13.759Z,21.63
2022-12-04T19:31:41.673Z,21.85
2022-12-04T19:34:09.244Z,22.15
2022-12-04T19:36:36.902Z,22.70
2022-12-04T19:39:06.992Z,22.15
2022-12-04T19:41:35.228Z,22.95
2022-12-04T19:44:14.644Z,25.52
2022-12-04T19:46:50.715Z,21.00
2022-12-04T19:49:18.280Z,21.13
2022-12-04T19:51:47.560Z,22.75
2022-12-04T19:54:15.269Z,23.58
2022-12-04T19:56:46.007Z,25.80
2022-12-04T19:59:13.641Z,25.95
2022-12-04T20:01:41.298Z,25.27
2022-12-04T20:04:09.171Z,24.13
2022-12-04T20:06:40.721Z,23.48
2022-12-04T20:09:10.139Z,23.73
2022-12-04T20:11:38.126Z,28.10
2022-12-04T20:14:06.348Z,25.98
2022-12-04T20:16:34.886Z,31.48
2022-12-04T20:19:03.172Z,54.45
2022-12-04T20:21:32.316Z,61.60
2022-12-04T20:24:02.205Z,34.38
2022-12-04T20:26:31.400Z,33.80
2022-12-04T20:29:00.089Z,32.60
2022-12-04T20:31:29.084Z,39.65
2022-12-04T20:33:57.390Z,123.68
2022-12-04T20:36:26.237Z,52.67
2022-12-04T20:39:00.736Z,30.80
2022-12-04T20:41:29.610Z,60.28
2022-12-04T20:43:59.577Z,32.58
2022-12-04T20:46:28.736Z,26.13
2022-12-04T20:48:56.487Z,25.92
2022-12-04T20:51:25.569Z,24.45
2022-12-04T20:53:54.371Z,24.23
2022-12-04T20:56:23.234Z,25.80
2022-12-04T20:58:50.798Z,28.48
2022-12-04T21:01:19.648Z,27.35
2022-12-04T21:03:47.753Z,26.27
2022-12-04T21:06:17.113Z,25.30
2022-12-04T21:08:53.569Z,26.77
2022-12-04T21:11:21.589Z,25.65
2022-12-04T21:14:07.725Z,25.45
2022-12-04T21:16:35.535Z,25.67
2022-12-04T21:19:07.405Z,26.30
2022-12-04T21:21:38.583Z,27.27
2022-12-04T21:24:07.073Z,38.38
2022-12-04T21:26:34.887Z,35.45
2022-12-04T21:29:02.932Z,57.67
2022-12-04T21:31:30.743Z,33.25
2022-12-04T21:33:59.704Z,31.63
2022-12-04T21:36:27.702Z,30.80
2022-12-04T21:38:55.731Z,27.50
2022-12-04T21:41:41.813Z,29.38
2022-12-04T21:44:10.869Z,27.98
2022-12-04T21:46:39.187Z,27.92
2022-12-04T21:49:07.185Z,28.85
2022-12-04T21:54:22.510Z,27.27
2022-12-04T21:56:50.290Z,26.65
2022-12-04T21:59:17.934Z,28.15
2022-12-04T22:01:45.579Z,28.33
2022-12-04T22:04:13.220Z,28.80
2022-12-04T22:06:40.911Z,28.58
2022-12-04T22:09:10.888Z,28.77
2022-12-04T22:11:39.266Z,30.48
2022-12-04T22:14:06.775Z,28.40
2022-12-04T22:16:39.859Z,29.77
2022-12-04T22:19:09.596Z,31.55
2022-12-04T22:21:37.257Z,31.75
2022-12-04T22:24:05.388Z,32.50
2022-12-04T22:26:33.010Z,32.38
2022-12-04T22:29:00.875Z,30.98
2022-12-04T22:31:29.319Z,31.17
2022-12-04T22:33:58.645Z,31.58
2022-12-04T22:36:31.059Z,31.05
2022-12-04T22:39:10.394Z,30.85
2022-12-04T22:42:22.800Z,31.75
2022-12-04T22:45:01.529Z,32.28
2022-12-04T22:47:31.872Z,31.95
2022-12-04T22:49:59.832Z,30.50
2022-12-04T22:56:05.296Z,29.42
2022-12-04T22:58:33.021Z,29.92
2022-12-04T23:01:00.956Z,39.22
2022-12-04T23:03:29.050Z,54.58
2022-12-04T23:06:00.581Z,73.63
2022-12-04T23:08:29.148Z,69.63
2022-12-04T23:10:57.046Z,102.45
2022-12-04T23:13:25.003Z,220.23
2022-12-04T23:15:53.054Z,149.75
2022-12-04T23:18:20.883Z,40.35
2022-12-04T23:20:48.424Z,51.83
2022-12-04T23:23:16.071Z,52.50
2022-12-04T23:25:43.608Z,40.70
2022-12-04T23:28:11.491Z,33.25
2022-12-04T23:30:44.938Z,32.88
2022-12-04T23:33:13.093Z,31.85
2022-12-04T23:38:37.995Z,32.95
2022-12-04T23:41:07.127Z,32.03
2022-12-04T23:43:35.434Z,32.83
2022-12-04T23:46:09.091Z,34.67
2022-12-04T23:48:38.909Z,32.70
2022-12-04T23:51:06.727Z,31.85
2022-12-04T23:53:34.891Z,32.10
2022-12-04T23:56:02.765Z,31.02
2022-12-04T23:58:37.100Z,30.02
